sensor_id;sensor_type;location;lat;lon;timestamp;temperature;humidity
17659;DHT22;8948;51.534;8.262;2023-04-15T00:03:25;8.70;57.80
17659;DHT22;8948;51.534;8.262;2023-04-15T00:08:26;8.70;58.00
17659;DHT22;8948;51.534;8.262;2023-04-15T00:13:27;8.60;58.20
17659;DHT22;8948;51.534;8.262;2023-04-15T00:18:27;8.50;58.40
17659;DHT22;8948;51.534;8.262;2023-04-15T00:23:29;8.40;58.70
17659;DHT22;8948;51.534;8.262;2023-04-15T00:28:30;8.40;58.50
17659;DHT22;8948;51.534;8.262;2023-04-15T00:33:30;8.40;58.50
17659;DHT22;8948;51.534;8.262;2023-04-15T00:38:31;8.30;58.90
17659;DHT22;8948;51.534;8.262;2023-04-15T00:43:31;8.20;58.90
17659;DHT22;8948;51.534;8.262;2023-04-15T00:48:32;8.10;58.90
17659;DHT22;8948;51.534;8.262;2023-04-15T00:53:33;7.90;59.80
17659;DHT22;8948;51.534;8.262;2023-04-15T00:58:33;7.90;60.60
17659;DHT22;8948;51.534;8.262;2023-04-15T01:03:34;7.90;60.20
17659;DHT22;8948;51.534;8.262;2023-04-15T01:08:34;7.80;60.20
17659;DHT22;8948;51.534;8.262;2023-04-15T01:13:35;7.80;60.30
17659;DHT22;8948;51.534;8.262;2023-04-15T01:18:36;7.90;61.10
17659;DHT22;8948;51.534;8.262;2023-04-15T01:23:38;7.70;62.00
17659;DHT22;8948;51.534;8.262;2023-04-15T01:28:39;7.70;62.90
17659;DHT22;8948;51.534;8.262;2023-04-15T01:33:40;7.80;62.30
17659;DHT22;8948;51.534;8.262;2023-04-15T01:38:41;7.80;62.50
17659;DHT22;8948;51.534;8.262;2023-04-15T01:43:42;7.70;63.10
17659;DHT22;8948;51.534;8.262;2023-04-15T01:48:43;7.70;61.80
17659;DHT22;8948;51.534;8.262;2023-04-15T01:53:43;7.70;61.40
17659;DHT22;8948;51.534;8.262;2023-04-15T01:58:44;7.60;61.50
17659;DHT22;8948;51.534;8.262;2023-04-15T02:03:45;7.50;61.60
17659;DHT22;8948;51.534;8.262;2023-04-15T02:08:45;7.40;61.70
17659;DHT22;8948;51.534;8.262;2023-04-15T02:13:46;7.20;62.10
17659;DHT22;8948;51.534;8.262;2023-04-15T02:18:46;7.20;62.30
17659;DHT22;8948;51.534;8.262;2023-04-15T02:23:47;7.10;62.30
17659;DHT22;8948;51.534;8.262;2023-04-15T02:28:48;7.00;61.80
17659;DHT22;8948;51.534;8.262;2023-04-15T02:33:50;7.00;62.10
17659;DHT22;8948;51.534;8.262;2023-04-15T02:38:51;6.80;62.90
17659;DHT22;8948;51.534;8.262;2023-04-15T02:43:52;6.80;62.20
17659;DHT22;8948;51.534;8.262;2023-04-15T02:48:52;6.70;62.30
17659;DHT22;8948;51.534;8.262;2023-04-15T02:53:53;6.70;62.40
17659;DHT22;8948;51.534;8.262;2023-04-15T02:58:53;6.50;62.80
17659;DHT22;8948;51.534;8.262;2023-04-15T03:03:55;6.60;62.60
17659;DHT22;8948;51.534;8.262;2023-04-15T03:08:56;6.60;62.70
17659;DHT22;8948;51.534;8.262;2023-04-15T03:13:56;6.40;63.30
17659;DHT22;8948;51.534;8.262;2023-04-15T03:18:57;6.40;63.40
17659;DHT22;8948;51.534;8.262;2023-04-15T03:23:58;6.40;63.20
17659;DHT22;8948;51.534;8.262;2023-04-15T03:28:59;6.40;62.90
17659;DHT22;8948;51.534;8.262;2023-04-15T03:33:59;6.30;62.80
17659;DHT22;8948;51.534;8.262;2023-04-15T03:39:00;6.30;63.00
17659;DHT22;8948;51.534;8.262;2023-04-15T03:44:04;6.30;63.50
17659;DHT22;8948;51.534;8.262;2023-04-15T03:49:06;6.20;63.40
17659;DHT22;8948;51.534;8.262;2023-04-15T03:54:06;6.20;63.40
17659;DHT22;8948;51.534;8.262;2023-04-15T03:59:07;6.20;63.50
17659;DHT22;8948;51.534;8.262;2023-04-15T04:04:08;6.10;64.40
17659;DHT22;8948;51.534;8.262;2023-04-15T04:09:08;6.20;69.70
17659;DHT22;8948;51.534;8.262;2023-04-15T04:14:09;6.80;67.60
17659;DHT22;8948;51.534;8.262;2023-04-15T04:19:09;6.90;66.20
17659;DHT22;8948;51.534;8.262;2023-04-15T04:24:11;6.90;66.00
17659;DHT22;8948;51.534;8.262;2023-04-15T04:29:11;7.30;68.00
17659;DHT22;8948;51.534;8.262;2023-04-15T04:34:12;7.70;67.70
17659;DHT22;8948;51.534;8.262;2023-04-15T04:39:12;7.90;63.70
17659;DHT22;8948;51.534;8.262;2023-04-15T04:44:13;8.00;66.30
17659;DHT22;8948;51.534;8.262;2023-04-15T04:49:13;8.10;63.00
17659;DHT22;8948;51.534;8.262;2023-04-15T04:54:14;7.70;61.40
17659;DHT22;8948;51.534;8.262;2023-04-15T04:59:15;7.30;62.80
17659;DHT22;8948;51.534;8.262;2023-04-15T05:04:16;7.10;64.10
17659;DHT22;8948;51.534;8.262;2023-04-15T05:09:16;7.00;63.90
17659;DHT22;8948;51.534;8.262;2023-04-15T05:14:17;6.90;64.00
17659;DHT22;8948;51.534;8.262;2023-04-15T05:19:17;6.80;64.50
17659;DHT22;8948;51.534;8.262;2023-04-15T05:24:18;6.80;65.50
17659;DHT22;8948;51.534;8.262;2023-04-15T05:29:19;6.80;66.10
17659;DHT22;8948;51.534;8.262;2023-04-15T05:34:19;6.80;68.50
17659;DHT22;8948;51.534;8.262;2023-04-15T05:39:20;6.90;66.30
17659;DHT22;8948;51.534;8.262;2023-04-15T05:44:20;6.90;65.30
17659;DHT22;8948;51.534;8.262;2023-04-15T05:49:21;7.00;65.70
17659;DHT22;8948;51.534;8.262;2023-04-15T05:54:21;7.00;69.00
17659;DHT22;8948;51.534;8.262;2023-04-15T05:59:22;7.10;69.60
17659;DHT22;8948;51.534;8.262;2023-04-15T06:04:23;7.30;69.50
17659;DHT22;8948;51.534;8.262;2023-04-15T06:09:23;7.70;69.60
17659;DHT22;8948;51.534;8.262;2023-04-15T06:14:24;7.90;69.50
17659;DHT22;8948;51.534;8.262;2023-04-15T06:19:24;8.00;69.50
17659;DHT22;8948;51.534;8.262;2023-04-15T06:24:25;8.00;69.30
17659;DHT22;8948;51.534;8.262;2023-04-15T06:29:26;8.10;69.00
17659;DHT22;8948;51.534;8.262;2023-04-15T06:34:26;8.30;68.90
17659;DHT22;8948;51.534;8.262;2023-04-15T06:39:27;8.50;69.00
17659;DHT22;8948;51.534;8.262;2023-04-15T06:44:28;8.50;68.90
17659;DHT22;8948;51.534;8.262;2023-04-15T06:49:28;8.80;68.10
17659;DHT22;8948;51.534;8.262;2023-04-15T06:54:29;8.90;68.30
17659;DHT22;8948;51.534;8.262;2023-04-15T06:59:30;9.00;68.30
17659;DHT22;8948;51.534;8.262;2023-04-15T07:04:31;8.90;68.30
17659;DHT22;8948;51.534;8.262;2023-04-15T07:09:32;8.90;68.90
17659;DHT22;8948;51.534;8.262;2023-04-15T07:14:33;8.90;69.30
17659;DHT22;8948;51.534;8.262;2023-04-15T07:19:34;8.90;69.20
17659;DHT22;8948;51.534;8.262;2023-04-15T07:24:35;9.00;69.80
17659;DHT22;8948;51.534;8.262;2023-04-15T07:29:35;9.20;69.00
17659;DHT22;8948;51.534;8.262;2023-04-15T07:34:36;9.30;68.90
17659;DHT22;8948;51.534;8.262;2023-04-15T07:39:37;9.30;68.70
17659;DHT22;8948;51.534;8.262;2023-04-15T07:44:38;9.30;68.30
17659;DHT22;8948;51.534;8.262;2023-04-15T07:49:38;9.30;68.80
17659;DHT22;8948;51.534;8.262;2023-04-15T07:54:39;9.30;68.90
17659;DHT22;8948;51.534;8.262;2023-04-15T07:59:39;9.10;69.70
17659;DHT22;8948;51.534;8.262;2023-04-15T08:04:41;9.20;69.10
17659;DHT22;8948;51.534;8.262;2023-04-15T08:09:41;9.10;69.10
17659;DHT22;8948;51.534;8.262;2023-04-15T08:14:42;9.00;69.60
17659;DHT22;8948;51.534;8.262;2023-04-15T08:19:42;9.10;69.50
17659;DHT22;8948;51.534;8.262;2023-04-15T08:24:43;9.40;70.00
17659;DHT22;8948;51.534;8.262;2023-04-15T08:29:43;9.50;69.50
17659;DHT22;8948;51.534;8.262;2023-04-15T08:34:45;9.40;69.20
17659;DHT22;8948;51.534;8.262;2023-04-15T08:39:45;9.50;70.40
17659;DHT22;8948;51.534;8.262;2023-04-15T08:44:46;9.50;69.30
17659;DHT22;8948;51.534;8.262;2023-04-15T08:49:48;9.50;69.90
17659;DHT22;8948;51.534;8.262;2023-04-15T08:54:57;9.40;70.30
17659;DHT22;8948;51.534;8.262;2023-04-15T09:00:01;9.30;70.90
17659;DHT22;8948;51.534;8.262;2023-04-15T09:05:03;9.20;71.20
17659;DHT22;8948;51.534;8.262;2023-04-15T09:10:06;9.20;71.90
17659;DHT22;8948;51.534;8.262;2023-04-15T09:15:07;9.40;72.00
17659;DHT22;8948;51.534;8.262;2023-04-15T09:20:14;9.30;71.90
17659;DHT22;8948;51.534;8.262;2023-04-15T09:30:22;9.10;72.20
17659;DHT22;8948;51.534;8.262;2023-04-15T09:35:24;9.10;73.10
17659;DHT22;8948;51.534;8.262;2023-04-15T09:45:34;9.00;73.00
17659;DHT22;8948;51.534;8.262;2023-04-15T09:50:40;9.10;73.80
17659;DHT22;8948;51.534;8.262;2023-04-15T09:55:56;9.20;73.40
17659;DHT22;8948;51.534;8.262;2023-04-15T10:00:58;9.00;73.50
17659;DHT22;8948;51.534;8.262;2023-04-15T10:06:00;8.90;74.40
17659;DHT22;8948;51.534;8.262;2023-04-15T10:11:01;8.80;74.80
17659;DHT22;8948;51.534;8.262;2023-04-15T10:16:13;8.80;75.40
17659;DHT22;8948;51.534;8.262;2023-04-15T10:21:14;8.80;75.40
17659;DHT22;8948;51.534;8.262;2023-04-15T10:26:17;8.70;75.60
17659;DHT22;8948;51.534;8.262;2023-04-15T10:31:19;8.70;75.40
17659;DHT22;8948;51.534;8.262;2023-04-15T10:36:20;8.70;76.30
17659;DHT22;8948;51.534;8.262;2023-04-15T10:41:25;8.80;75.90
17659;DHT22;8948;51.534;8.262;2023-04-15T10:46:38;8.80;76.10
17659;DHT22;8948;51.534;8.262;2023-04-15T10:51:41;8.80;76.30
17659;DHT22;8948;51.534;8.262;2023-04-15T10:56:44;8.80;76.50
17659;DHT22;8948;51.534;8.262;2023-04-15T11:01:54;8.70;76.80
17659;DHT22;8948;51.534;8.262;2023-04-15T11:07:06;8.80;77.00
17659;DHT22;8948;51.534;8.262;2023-04-15T11:12:07;8.80;77.10
17659;DHT22;8948;51.534;8.262;2023-04-15T11:17:09;8.80;77.30
17659;DHT22;8948;51.534;8.262;2023-04-15T11:22:09;8.80;77.60
17659;DHT22;8948;51.534;8.262;2023-04-15T11:27:20;8.90;77.50
17659;DHT22;8948;51.534;8.262;2023-04-15T11:32:21;8.90;77.70
17659;DHT22;8948;51.534;8.262;2023-04-15T11:37:28;8.90;77.70
17659;DHT22;8948;51.534;8.262;2023-04-15T11:42:28;9.00;77.80
17659;DHT22;8948;51.534;8.262;2023-04-15T11:47:29;9.00;78.30
17659;DHT22;8948;51.534;8.262;2023-04-15T11:52:30;9.00;78.60
17659;DHT22;8948;51.534;8.262;2023-04-15T11:57:31;9.00;78.60
17659;DHT22;8948;51.534;8.262;2023-04-15T12:02:31;9.10;78.60
17659;DHT22;8948;51.534;8.262;2023-04-15T12:07:32;9.10;79.10
17659;DHT22;8948;51.534;8.262;2023-04-15T12:12:32;9.20;78.20
17659;DHT22;8948;51.534;8.262;2023-04-15T12:17:33;9.20;79.20
17659;DHT22;8948;51.534;8.262;2023-04-15T12:22:37;9.20;79.40
17659;DHT22;8948;51.534;8.262;2023-04-15T12:27:37;9.20;79.10
17659;DHT22;8948;51.534;8.262;2023-04-15T12:32:38;9.30;79.30
17659;DHT22;8948;51.534;8.262;2023-04-15T12:37:39;9.40;78.80
17659;DHT22;8948;51.534;8.262;2023-04-15T12:42:39;9.40;78.60
17659;DHT22;8948;51.534;8.262;2023-04-15T12:47:40;9.40;78.50
17659;DHT22;8948;51.534;8.262;2023-04-15T12:52:41;9.30;78.80
17659;DHT22;8948;51.534;8.262;2023-04-15T12:57:41;9.20;80.10
17659;DHT22;8948;51.534;8.262;2023-04-15T13:02:42;9.30;79.60
17659;DHT22;8948;51.534;8.262;2023-04-15T13:07:43;9.30;79.60
17659;DHT22;8948;51.534;8.262;2023-04-15T13:12:44;9.30;79.60
17659;DHT22;8948;51.534;8.262;2023-04-15T13:17:46;9.30;79.90
17659;DHT22;8948;51.534;8.262;2023-04-15T13:22:47;9.30;79.50
17659;DHT22;8948;51.534;8.262;2023-04-15T13:27:48;9.40;79.90
17659;DHT22;8948;51.534;8.262;2023-04-15T13:32:49;9.40;79.90
17659;DHT22;8948;51.534;8.262;2023-04-15T13:37:50;9.40;79.50
17659;DHT22;8948;51.534;8.262;2023-04-15T13:42:52;9.40;79.50
17659;DHT22;8948;51.534;8.262;2023-04-15T13:47:54;9.40;79.70
17659;DHT22;8948;51.534;8.262;2023-04-15T13:52:55;9.40;80.30
17659;DHT22;8948;51.534;8.262;2023-04-15T13:57:56;9.40;80.50
17659;DHT22;8948;51.534;8.262;2023-04-15T14:02:57;9.40;80.30
17659;DHT22;8948;51.534;8.262;2023-04-15T14:07:58;9.40;80.60
17659;DHT22;8948;51.534;8.262;2023-04-15T14:12:59;9.30;81.00
17659;DHT22;8948;51.534;8.262;2023-04-15T14:18:00;9.40;80.60
17659;DHT22;8948;51.534;8.262;2023-04-15T14:23:01;9.40;80.50
17659;DHT22;8948;51.534;8.262;2023-04-15T14:28:01;9.40;80.20
17659;DHT22;8948;51.534;8.262;2023-04-15T14:33:02;9.20;81.40
17659;DHT22;8948;51.534;8.262;2023-04-15T14:38:03;9.30;81.20
17659;DHT22;8948;51.534;8.262;2023-04-15T14:43:05;9.30;81.50
17659;DHT22;8948;51.534;8.262;2023-04-15T14:48:06;9.30;80.90
17659;DHT22;8948;51.534;8.262;2023-04-15T14:53:09;9.40;81.00
17659;DHT22;8948;51.534;8.262;2023-04-15T14:58:10;9.30;81.20
17659;DHT22;8948;51.534;8.262;2023-04-15T15:03:11;9.30;81.60
17659;DHT22;8948;51.534;8.262;2023-04-15T15:08:15;9.30;81.40
17659;DHT22;8948;51.534;8.262;2023-04-15T15:13:16;9.30;81.30
17659;DHT22;8948;51.534;8.262;2023-04-15T15:18:17;9.30;81.50
17659;DHT22;8948;51.534;8.262;2023-04-15T15:23:18;9.30;81.50
17659;DHT22;8948;51.534;8.262;2023-04-15T15:28:19;9.30;81.50
17659;DHT22;8948;51.534;8.262;2023-04-15T15:33:21;9.30;80.80
17659;DHT22;8948;51.534;8.262;2023-04-15T15:38:21;9.30;81.00
17659;DHT22;8948;51.534;8.262;2023-04-15T15:43:22;9.30;80.80
17659;DHT22;8948;51.534;8.262;2023-04-15T15:48:23;9.20;81.80
17659;DHT22;8948;51.534;8.262;2023-04-15T15:53:23;9.30;81.50
17659;DHT22;8948;51.534;8.262;2023-04-15T15:58:25;9.30;81.00
17659;DHT22;8948;51.534;8.262;2023-04-15T16:03:26;9.20;81.10
17659;DHT22;8948;51.534;8.262;2023-04-15T16:08:27;9.20;82.10
17659;DHT22;8948;51.534;8.262;2023-04-15T16:13:27;9.20;82.10
17659;DHT22;8948;51.534;8.262;2023-04-15T16:18:28;9.10;81.80
17659;DHT22;8948;51.534;8.262;2023-04-15T16:23:29;9.10;82.20
17659;DHT22;8948;51.534;8.262;2023-04-15T16:28:30;9.10;82.30
17659;DHT22;8948;51.534;8.262;2023-04-15T16:33:31;9.00;82.30
17659;DHT22;8948;51.534;8.262;2023-04-15T16:38:31;9.10;82.60
17659;DHT22;8948;51.534;8.262;2023-04-15T16:43:32;9.20;82.40
17659;DHT22;8948;51.534;8.262;2023-04-15T16:48:33;9.20;82.20
17659;DHT22;8948;51.534;8.262;2023-04-15T16:53:33;9.30;82.60
17659;DHT22;8948;51.534;8.262;2023-04-15T16:58:34;9.30;81.50
17659;DHT22;8948;51.534;8.262;2023-04-15T17:03:34;9.30;81.50
17659;DHT22;8948;51.534;8.262;2023-04-15T17:08:36;9.20;82.10
17659;DHT22;8948;51.534;8.262;2023-04-15T17:13:37;9.20;82.00
17659;DHT22;8948;51.534;8.262;2023-04-15T17:18:37;9.20;82.50
17659;DHT22;8948;51.534;8.262;2023-04-15T17:23:38;9.30;82.00
17659;DHT22;8948;51.534;8.262;2023-04-15T17:28:38;9.30;81.60
17659;DHT22;8948;51.534;8.262;2023-04-15T17:33:39;9.20;82.00
17659;DHT22;8948;51.534;8.262;2023-04-15T17:38:41;9.20;81.90
17659;DHT22;8948;51.534;8.262;2023-04-15T17:43:42;9.20;81.90
17659;DHT22;8948;51.534;8.262;2023-04-15T17:48:43;9.20;81.70
17659;DHT22;8948;51.534;8.262;2023-04-15T17:53:43;9.10;82.30
17659;DHT22;8948;51.534;8.262;2023-04-15T17:58:44;9.10;82.40
17659;DHT22;8948;51.534;8.262;2023-04-15T18:03:44;9.10;83.00
17659;DHT22;8948;51.534;8.262;2023-04-15T18:08:45;9.10;82.00
17659;DHT22;8948;51.534;8.262;2023-04-15T18:13:45;9.10;82.70
17659;DHT22;8948;51.534;8.262;2023-04-15T18:18:46;9.10;83.20
17659;DHT22;8948;51.534;8.262;2023-04-15T18:23:46;9.00;83.60
17659;DHT22;8948;51.534;8.262;2023-04-15T18:28:47;9.10;82.70
17659;DHT22;8948;51.534;8.262;2023-04-15T18:33:47;9.20;82.80
17659;DHT22;8948;51.534;8.262;2023-04-15T18:38:48;9.10;83.20
17659;DHT22;8948;51.534;8.262;2023-04-15T18:43:49;9.10;83.30
17659;DHT22;8948;51.534;8.262;2023-04-15T18:48:49;9.10;83.40
17659;DHT22;8948;51.534;8.262;2023-04-15T18:53:50;9.00;83.60
17659;DHT22;8948;51.534;8.262;2023-04-15T18:58:51;9.00;83.80
17659;DHT22;8948;51.534;8.262;2023-04-15T19:03:51;9.00;83.70
17659;DHT22;8948;51.534;8.262;2023-04-15T19:08:52;9.10;83.40
17659;DHT22;8948;51.534;8.262;2023-04-15T19:13:53;9.10;83.70
17659;DHT22;8948;51.534;8.262;2023-04-15T19:18:53;9.10;83.40
17659;DHT22;8948;51.534;8.262;2023-04-15T19:23:55;9.10;83.50
17659;DHT22;8948;51.534;8.262;2023-04-15T19:28:56;9.00;84.00
17659;DHT22;8948;51.534;8.262;2023-04-15T19:33:58;9.00;83.60
17659;DHT22;8948;51.534;8.262;2023-04-15T19:39:00;9.00;83.40
17659;DHT22;8948;51.534;8.262;2023-04-15T19:44:00;9.00;84.00
17659;DHT22;8948;51.534;8.262;2023-04-15T19:49:03;8.90;84.00
17659;DHT22;8948;51.534;8.262;2023-04-15T19:54:04;9.00;84.00
17659;DHT22;8948;51.534;8.262;2023-04-15T19:59:04;9.00;84.00
17659;DHT22;8948;51.534;8.262;2023-04-15T20:04:05;9.00;84.00
17659;DHT22;8948;51.534;8.262;2023-04-15T20:09:06;9.00;83.60
17659;DHT22;8948;51.534;8.262;2023-04-15T20:14:06;9.00;83.60
17659;DHT22;8948;51.534;8.262;2023-04-15T20:19:07;9.00;83.80
17659;DHT22;8948;51.534;8.262;2023-04-15T20:24:08;9.00;83.50
17659;DHT22;8948;51.534;8.262;2023-04-15T20:29:09;9.00;83.60
17659;DHT22;8948;51.534;8.262;2023-04-15T20:34:10;9.00;83.60
17659;DHT22;8948;51.534;8.262;2023-04-15T20:39:11;9.10;83.50
17659;DHT22;8948;51.534;8.262;2023-04-15T20:44:11;9.10;83.40
17659;DHT22;8948;51.534;8.262;2023-04-15T20:49:12;9.00;83.50
17659;DHT22;8948;51.534;8.262;2023-04-15T20:54:12;9.00;83.40
17659;DHT22;8948;51.534;8.262;2023-04-15T20:59:13;9.00;83.20
17659;DHT22;8948;51.534;8.262;2023-04-15T21:04:14;9.00;83.60
17659;DHT22;8948;51.534;8.262;2023-04-15T21:09:15;9.00;83.70
17659;DHT22;8948;51.534;8.262;2023-04-15T21:14:16;9.00;84.10
17659;DHT22;8948;51.534;8.262;2023-04-15T21:19:16;9.00;83.80
17659;DHT22;8948;51.534;8.262;2023-04-15T21:24:17;9.00;83.80
17659;DHT22;8948;51.534;8.262;2023-04-15T21:29:17;9.00;84.20
17659;DHT22;8948;51.534;8.262;2023-04-15T21:34:18;9.00;83.80
17659;DHT22;8948;51.534;8.262;2023-04-15T21:39:19;9.00;83.30
17659;DHT22;8948;51.534;8.262;2023-04-15T21:44:20;9.00;83.50
17659;DHT22;8948;51.534;8.262;2023-04-15T21:49:20;9.00;83.50
17659;DHT22;8948;51.534;8.262;2023-04-15T21:54:21;9.00;83.60
17659;DHT22;8948;51.534;8.262;2023-04-15T21:59:21;9.00;83.90
17659;DHT22;8948;51.534;8.262;2023-04-15T22:04:22;9.00;83.90
17659;DHT22;8948;51.534;8.262;2023-04-15T22:09:23;9.10;83.30
17659;DHT22;8948;51.534;8.262;2023-04-15T22:14:24;9.00;83.90
17659;DHT22;8948;51.534;8.262;2023-04-15T22:19:25;9.10;83.60
17659;DHT22;8948;51.534;8.262;2023-04-15T22:24:25;9.10;83.70
17659;DHT22;8948;51.534;8.262;2023-04-15T22:29:26;9.10;83.80
17659;DHT22;8948;51.534;8.262;2023-04-15T22:34:27;9.10;84.00
17659;DHT22;8948;51.534;8.262;2023-04-15T22:39:27;9.10;84.10
17659;DHT22;8948;51.534;8.262;2023-04-15T22:44:28;9.10;84.50
17659;DHT22;8948;51.534;8.262;2023-04-15T22:49:28;9.00;84.90
17659;DHT22;8948;51.534;8.262;2023-04-15T22:54:29;9.00;85.10
17659;DHT22;8948;51.534;8.262;2023-04-15T22:59:29;9.00;84.90
17659;DHT22;8948;51.534;8.262;2023-04-15T23:04:30;8.90;85.50
17659;DHT22;8948;51.534;8.262;2023-04-15T23:09:31;8.90;85.70
17659;DHT22;8948;51.534;8.262;2023-04-15T23:14:31;8.90;85.60
17659;DHT22;8948;51.534;8.262;2023-04-15T23:19:32;8.90;85.60
17659;DHT22;8948;51.534;8.262;2023-04-15T23:24:32;9.00;85.50
17659;DHT22;8948;51.534;8.262;2023-04-15T23:29:33;9.00;85.20
17659;DHT22;8948;51.534;8.262;2023-04-15T23:34:33;9.00;85.30
17659;DHT22;8948;51.534;8.262;2023-04-15T23:39:34;8.90;85.40
17659;DHT22;8948;51.534;8.262;2023-04-15T23:44:34;8.90;85.70
17659;DHT22;8948;51.534;8.262;2023-04-15T23:49:37;9.00;85.40
17659;DHT22;8948;51.534;8.262;2023-04-15T23:54:40;9.10;85.10
17659;DHT22;8948;51.534;8.262;2023-04-15T23:59:40;9.00;85.20
